createdAt,value
2022-12-01T00:01:00.307Z,25.08
2022-12-01T00:03:27.087Z,24.75
2022-12-01T00:06:03.732Z,21.63
2022-12-01T00:08:30.176Z,25.73
2022-12-01T00:10:56.476Z,24.05
2022-12-01T00:13:22.917Z,23.17
2022-12-01T00:15:49.298Z,25.40
2022-12-01T00:18:15.618Z,22.63
2022-12-01T00:20:41.932Z,23.58
2022-12-01T00:23:08.218Z,21.83
2022-12-01T00:25:34.652Z,23.55
2022-12-01T00:28:01.041Z,23.55
2022-12-01T00:30:27.340Z,22.65
2022-12-01T00:32:53.610Z,22.70
2022-12-01T00:35:20.002Z,22.92
2022-12-01T00:37:46.333Z,22.35
2022-12-01T00:40:12.893Z,23.05
2022-12-01T00:42:39.121Z,23.20
2022-12-01T00:45:05.724Z,22.42
2022-12-01T00:47:32.490Z,22.75
2022-12-01T00:49:58.756Z,23.83
2022-12-01T00:52:25.044Z,21.40
2022-12-01T00:54:51.313Z,23.70
2022-12-01T00:57:17.705Z,24.30
2022-12-01T00:59:44.077Z,22.27
2022-12-01T01:02:10.748Z,23.27
2022-12-01T01:04:37.562Z,22.10
2022-12-01T01:07:04.064Z,23.63
2022-12-01T01:09:31.002Z,22.48
2022-12-01T01:11:57.371Z,22.77
2022-12-01T01:14:24.129Z,21.90
2022-12-01T01:16:50.589Z,23.63
2022-12-01T01:19:17.522Z,22.27
2022-12-01T01:21:43.780Z,21.98
2022-12-01T01:24:10.216Z,22.77
2022-12-01T01:26:37.291Z,21.45
2022-12-01T01:29:04.563Z,20.35
2022-12-01T01:31:31.289Z,21.17
2022-12-01T01:33:58.153Z,23.27
2022-12-01T01:36:24.946Z,22.67
2022-12-01T01:38:51.692Z,22.80
2022-12-01T01:41:18.622Z,22.17
2022-12-01T01:43:47.975Z,22.77
2022-12-01T01:46:18.554Z,23.75
2022-12-01T01:48:49.674Z,23.25
2022-12-01T01:51:17.261Z,22.95
2022-12-01T01:53:45.316Z,22.05
2022-12-01T01:56:11.793Z,23.35
2022-12-01T01:58:39.010Z,21.85
2022-12-01T02:01:05.901Z,23.05
2022-12-01T02:03:33.288Z,22.80
2022-12-01T02:06:04.668Z,22.10
2022-12-01T02:08:32.778Z,24.17
2022-12-01T02:11:21.991Z,22.02
2022-12-01T02:14:07.176Z,23.42
2022-12-01T02:16:42.882Z,24.43
2022-12-01T02:19:12.014Z,23.02
2022-12-01T02:21:38.284Z,24.67
2022-12-01T02:24:16.739Z,24.42
2022-12-01T02:26:43.777Z,22.00
2022-12-01T02:29:15.360Z,23.00
2022-12-01T02:31:45.897Z,23.05
2022-12-01T02:34:21.621Z,22.67
2022-12-01T02:39:22.275Z,22.45
2022-12-01T02:41:53.595Z,24.13
2022-12-01T02:44:21.870Z,24.02
2022-12-01T02:46:55.302Z,24.52
2022-12-01T02:49:25.970Z,25.20
2022-12-01T02:51:54.054Z,24.83
2022-12-01T02:54:21.191Z,24.73
2022-12-01T02:56:51.227Z,24.90
2022-12-01T02:59:17.522Z,23.65
2022-12-01T03:02:02.458Z,24.30
2022-12-01T03:04:38.257Z,25.42
2022-12-01T03:07:26.968Z,24.90
2022-12-01T03:10:13.738Z,25.20
2022-12-01T03:12:40.018Z,23.35
2022-12-01T03:15:12.845Z,25.15
2022-12-01T03:17:42.997Z,23.88
2022-12-01T03:20:21.434Z,24.70
2022-12-01T03:22:51.852Z,24.60
2022-12-01T03:25:19.071Z,24.58
2022-12-01T03:28:06.706Z,23.67
2022-12-01T03:30:37.225Z,24.88
2022-12-01T03:33:05.003Z,24.40
2022-12-01T03:35:57.475Z,24.17
2022-12-01T03:38:25.286Z,24.13
2022-12-01T03:40:53.983Z,22.42
2022-12-01T03:43:23.401Z,24.60
2022-12-01T03:45:59.016Z,23.15
2022-12-01T03:48:25.812Z,25.42
2022-12-01T03:50:58.307Z,22.70
2022-12-01T03:53:27.276Z,23.50
2022-12-01T03:55:58.779Z,22.23
2022-12-01T03:58:34.349Z,22.40
2022-12-01T04:01:04.331Z,24.67
2022-12-01T04:03:31.208Z,23.77
2022-12-01T04:05:58.019Z,23.67
2022-12-01T04:08:24.290Z,23.80
2022-12-01T04:10:50.711Z,23.17
2022-12-01T04:13:22.855Z,23.33
2022-12-01T04:15:55.357Z,24.40
2022-12-01T04:18:22.023Z,24.30
2022-12-01T04:20:49.362Z,24.05
2022-12-01T04:23:35.708Z,26.65
2022-12-01T04:26:02.896Z,23.70
2022-12-01T04:28:29.448Z,23.42
2022-12-01T04:30:55.780Z,26.67
2022-12-01T04:33:22.103Z,25.73
2022-12-01T04:36:00.520Z,22.73
2022-12-01T04:38:30.814Z,24.58
2022-12-01T04:40:57.470Z,25.27
2022-12-01T04:43:23.751Z,24.05
2022-12-01T04:45:50.157Z,24.80
2022-12-01T04:48:16.466Z,24.27
2022-12-01T04:50:43.176Z,24.23
2022-12-01T04:53:09.474Z,23.92
2022-12-01T04:55:39.277Z,25.08
2022-12-01T04:58:05.954Z,22.38
2022-12-01T05:00:32.499Z,25.92
2022-12-01T05:02:59.783Z,24.23
2022-12-01T05:05:26.314Z,25.08
2022-12-01T05:07:52.626Z,24.52
2022-12-01T05:10:19.084Z,26.35
2022-12-01T05:12:48.298Z,24.52
2022-12-01T05:15:14.584Z,23.40
2022-12-01T05:17:41.050Z,24.15
2022-12-01T05:20:26.375Z,24.50
2022-12-01T05:23:10.884Z,23.98
2022-12-01T05:25:39.074Z,26.30
2022-12-01T05:28:06.426Z,25.98
2022-12-01T05:30:32.819Z,23.88
2022-12-01T05:32:59.116Z,23.67
2022-12-01T05:35:25.453Z,23.52
2022-12-01T05:37:51.775Z,25.23
2022-12-01T05:40:18.021Z,24.63
2022-12-01T05:42:44.368Z,24.13
2022-12-01T05:45:10.909Z,26.60
2022-12-01T05:47:37.168Z,23.55
2022-12-01T05:50:05.809Z,25.50
2022-12-01T05:52:33.278Z,25.45
2022-12-01T05:54:59.555Z,25.00
2022-12-01T05:57:25.866Z,22.35
2022-12-01T05:59:52.109Z,25.10
2022-12-01T06:02:18.477Z,26.48
2022-12-01T06:04:44.820Z,25.65
2022-12-01T06:07:11.073Z,26.42
2022-12-01T06:09:37.369Z,26.33
2022-12-01T06:12:03.771Z,23.00
2022-12-01T06:14:30.039Z,25.67
2022-12-01T06:16:56.434Z,24.38
2022-12-01T06:19:22.766Z,23.90
2022-12-01T06:21:49.092Z,24.17
2022-12-01T06:24:15.382Z,24.50
2022-12-01T06:26:42.300Z,25.67
2022-12-01T06:29:10.748Z,24.85
2022-12-01T06:31:37.086Z,25.90
2022-12-01T06:34:03.477Z,25.52
2022-12-01T06:36:29.760Z,24.70
2022-12-01T06:38:56.034Z,26.38
2022-12-01T06:41:22.605Z,24.80
2022-12-01T06:43:48.942Z,24.38
2022-12-01T06:46:15.298Z,26.25
2022-12-01T06:48:42.307Z,24.05
2022-12-01T06:51:10.774Z,27.65
2022-12-01T06:53:37.327Z,24.42
2022-12-01T06:56:04.526Z,23.45
2022-12-01T06:58:31.793Z,22.20
2022-12-01T07:00:58.966Z,24.25
2022-12-01T07:03:25.352Z,25.15
2022-12-01T07:05:58.662Z,24.02
2022-12-01T07:08:26.104Z,26.23
2022-12-01T07:10:58.291Z,25.73
2022-12-01T07:13:27.669Z,24.15
2022-12-01T07:15:57.893Z,24.45
2022-12-01T07:18:24.240Z,27.02
2022-12-01T07:20:50.569Z,24.60
2022-12-01T07:23:16.839Z,26.02
2022-12-01T07:25:43.414Z,25.88
2022-12-01T07:28:09.732Z,25.77
2022-12-01T07:30:36.109Z,26.67
2022-12-01T07:33:02.409Z,24.77
2022-12-01T07:35:29.040Z,25.17
2022-12-01T07:37:55.896Z,26.27
2022-12-01T07:40:22.724Z,27.70
2022-12-01T07:42:49.169Z,28.35
2022-12-01T07:45:15.481Z,28.42
2022-12-01T07:47:42.402Z,28.75
2022-12-01T07:50:08.783Z,28.85
2022-12-01T07:52:35.012Z,28.23
2022-12-01T07:55:01.250Z,27.52
2022-12-01T07:57:27.564Z,27.95
2022-12-01T07:59:53.927Z,28.27
2022-12-01T08:02:20.420Z,30.08
2022-12-01T08:04:46.721Z,28.65
2022-12-01T08:07:13.489Z,28.42
2022-12-01T08:09:39.826Z,29.80
2022-12-01T08:12:06.416Z,28.63
2022-12-01T08:14:32.733Z,28.13
2022-12-01T08:16:59.066Z,29.40
2022-12-01T08:19:25.822Z,28.55
2022-12-01T08:21:52.066Z,28.25
2022-12-01T08:24:18.318Z,26.92
2022-12-01T08:26:44.649Z,29.45
2022-12-01T08:29:13.616Z,28.42
2022-12-01T08:31:43.442Z,27.58
2022-12-01T08:34:09.768Z,29.70
2022-12-01T08:36:36.283Z,29.23
2022-12-01T08:39:02.758Z,28.98
2022-12-01T08:41:29.429Z,28.92
2022-12-01T08:43:58.889Z,29.23
2022-12-01T08:46:27.063Z,29.33
2022-12-01T08:48:54.985Z,29.00
2022-12-01T08:51:21.427Z,28.67
2022-12-01T08:53:48.806Z,29.83
2022-12-01T08:56:22.873Z,29.55
2022-12-01T08:58:50.255Z,30.88
2022-12-01T09:01:17.170Z,30.52
2022-12-01T09:03:44.143Z,29.38
2022-12-01T09:06:12.446Z,30.50
2022-12-01T09:08:38.769Z,30.13
2022-12-01T09:11:07.141Z,28.45
2022-12-01T09:13:34.279Z,28.80
2022-12-01T09:16:04.816Z,28.83
2022-12-01T09:18:31.861Z,28.25
2022-12-01T09:20:58.886Z,27.95
2022-12-01T09:23:25.816Z,30.45
2022-12-01T09:25:52.702Z,29.95
2022-12-01T09:28:19.372Z,28.30
2022-12-01T09:30:46.420Z,27.77
2022-12-01T09:33:13.521Z,30.50
2022-12-01T09:35:39.892Z,27.45
2022-12-01T09:38:06.329Z,28.08
2022-12-01T09:40:35.275Z,29.00
2022-12-01T09:43:03.502Z,27.77
2022-12-01T09:45:31.645Z,30.05
2022-12-01T09:47:59.596Z,29.65
2022-12-01T09:50:25.879Z,29.77
2022-12-01T09:52:54.006Z,28.73
2022-12-01T09:55:21.853Z,28.63
2022-12-01T09:57:49.069Z,28.98
2022-12-01T10:00:17.331Z,29.15
2022-12-01T10:02:47.725Z,29.50
2022-12-01T10:05:18.096Z,29.02
2022-12-01T10:07:47.979Z,29.30
2022-12-01T10:10:15.536Z,32.15
2022-12-01T10:12:43.543Z,31.40
2022-12-01T10:15:13.108Z,29.83
2022-12-01T10:17:45.402Z,30.08
2022-12-01T10:20:22.660Z,30.95
2022-12-01T10:22:56.377Z,31.10
2022-12-01T10:25:27.756Z,29.40
2022-12-01T10:28:05.020Z,29.95
2022-12-01T10:30:32.190Z,29.67
2022-12-01T10:33:15.588Z,30.25
2022-12-01T10:35:42.532Z,28.48
2022-12-01T10:38:13.799Z,29.70
2022-12-01T10:40:41.372Z,28.88
2022-12-01T10:43:09.744Z,29.35
2022-12-01T10:45:40.015Z,29.30
2022-12-01T10:48:15.033Z,29.13
2022-12-01T10:50:42.588Z,28.27
2022-12-01T10:53:26.279Z,27.65
2022-12-01T10:56:11.197Z,28.10
2022-12-01T10:58:48.005Z,28.00
2022-12-01T11:01:22.006Z,27.63
2022-12-01T11:03:54.190Z,27.73
2022-12-01T11:06:25.545Z,28.13
2022-12-01T11:08:55.150Z,26.73
2022-12-01T11:11:24.265Z,29.17
2022-12-01T11:13:50.903Z,30.00
2022-12-01T11:16:34.478Z,27.67
2022-12-01T11:19:26.824Z,27.48
2022-12-01T11:21:55.466Z,25.92
2022-12-01T11:24:33.793Z,27.20
2022-12-01T11:27:00.687Z,27.50
2022-12-01T11:29:30.155Z,28.30
2022-12-01T11:31:57.408Z,28.17
2022-12-01T11:34:25.762Z,27.83
2022-12-01T11:36:54.459Z,24.88
2022-12-01T11:39:29.073Z,26.27
2022-12-01T11:41:56.624Z,26.35
2022-12-01T11:44:49.557Z,25.63
2022-12-01T11:47:22.817Z,26.30
2022-12-01T11:49:57.927Z,29.13
2022-12-01T11:52:27.480Z,26.15
2022-12-01T11:54:58.183Z,27.80
2022-12-01T11:57:34.138Z,28.52
2022-12-01T12:00:01.669Z,26.20
2022-12-01T12:02:46.465Z,26.55
2022-12-01T12:05:36.247Z,24.65
2022-12-01T12:08:17.898Z,26.55
2022-12-01T12:10:51.776Z,26.70
2022-12-01T12:13:40.725Z,26.02
2022-12-01T12:16:30.284Z,27.00
2022-12-01T12:19:13.826Z,25.35
2022-12-01T12:21:43.492Z,24.85
2022-12-01T12:24:14.818Z,26.85
2022-12-01T12:26:41.139Z,24.95
2022-12-01T12:29:24.398Z,25.05
2022-12-01T12:32:09.144Z,25.63
2022-12-01T12:34:44.530Z,24.55
2022-12-01T12:37:19.381Z,24.67
2022-12-01T12:39:49.035Z,25.38
2022-12-01T12:42:24.671Z,24.83
2022-12-01T12:45:08.275Z,25.05
2022-12-01T12:47:42.708Z,24.67
2022-12-01T12:50:17.368Z,24.33
2022-12-01T12:52:49.790Z,23.33
2022-12-01T12:55:16.075Z,25.55
2022-12-01T12:57:48.370Z,25.00
2022-12-01T13:00:19.158Z,25.88
2022-12-01T13:02:49.087Z,25.98
2022-12-01T13:05:30.763Z,26.58
2022-12-01T13:08:02.952Z,24.27
2022-12-01T13:10:37.837Z,25.83
2022-12-01T13:13:24.462Z,25.27
2022-12-01T13:15:52.065Z,23.70
2022-12-01T13:18:37.867Z,24.30
2022-12-01T13:21:04.542Z,24.63
2022-12-01T13:23:31.024Z,24.13
2022-12-01T13:25:59.108Z,23.90
2022-12-01T13:28:28.517Z,23.42
2022-12-01T13:31:06.297Z,22.17
2022-12-01T13:33:33.809Z,22.33
2022-12-01T13:36:38.158Z,22.05
2022-12-01T13:39:00.938Z,22.23
2022-12-01T13:41:27.950Z,23.60
2022-12-01T13:44:00.317Z,21.98
2022-12-01T13:46:29.490Z,22.17
2022-12-01T13:48:57.112Z,22.40
2022-12-01T13:51:24.296Z,22.45
2022-12-01T13:53:56.430Z,23.02
2022-12-01T13:56:27.731Z,23.85
2022-12-01T13:58:54.631Z,22.23
2022-12-01T14:01:21.547Z,21.60
2022-12-01T14:03:51.280Z,22.08
2022-12-01T14:06:46.496Z,22.20
2022-12-01T14:09:15.725Z,23.17
2022-12-01T14:11:53.855Z,21.00
2022-12-01T14:14:26.019Z,22.13
2022-12-01T14:16:58.449Z,22.55
2022-12-01T14:19:27.547Z,23.45
2022-12-01T14:21:53.909Z,21.88
2022-12-01T14:24:25.205Z,22.50
2022-12-01T14:26:52.309Z,23.13
2022-12-01T14:29:26.471Z,22.80
2022-12-01T14:31:52.752Z,22.55
2022-12-01T14:34:24.076Z,22.38
2022-12-01T14:37:07.589Z,21.63
2022-12-01T14:39:35.210Z,21.77
2022-12-01T14:42:35.340Z,21.67
2022-12-01T14:45:02.319Z,20.70
2022-12-01T14:47:44.440Z,21.55
2022-12-01T14:50:13.927Z,21.80
2022-12-01T14:52:42.873Z,20.17
2022-12-01T14:55:15.706Z,19.15
2022-12-01T14:57:48.694Z,20.05
2022-12-01T15:00:15.276Z,19.35
2022-12-01T15:02:43.720Z,19.95
2022-12-01T15:05:14.662Z,21.58
2022-12-01T15:07:42.718Z,20.75
2022-12-01T15:10:19.697Z,21.02
2022-12-01T15:12:46.749Z,20.60
2022-12-01T15:15:23.588Z,20.88
2022-12-01T15:17:50.780Z,22.00
2022-12-01T15:20:33.966Z,21.50
2022-12-01T15:23:01.159Z,20.92
2022-12-01T15:25:29.536Z,19.83
2022-12-01T15:28:14.559Z,21.00
2022-12-01T15:30:42.073Z,21.30
2022-12-01T15:33:15.773Z,20.83
2022-12-01T15:35:46.967Z,20.45
2022-12-01T15:38:17.984Z,19.70
2022-12-01T15:41:28.010Z,20.02
2022-12-01T15:43:37.519Z,20.13
2022-12-01T15:46:14.379Z,19.02
2022-12-01T15:48:41.461Z,20.50
2022-12-01T15:51:16.536Z,20.90
2022-12-01T15:53:50.843Z,20.58
2022-12-01T15:56:24.595Z,21.45
2022-12-01T15:58:51.467Z,19.27
2022-12-01T16:01:18.978Z,20.63
2022-12-01T16:03:55.632Z,19.75
2022-12-01T16:06:23.688Z,21.45
2022-12-01T16:09:05.214Z,20.00
2022-12-01T16:11:32.019Z,20.90
2022-12-01T16:14:00.423Z,19.48
2022-12-01T16:16:37.097Z,18.98
2022-12-01T16:19:09.646Z,21.23
2022-12-01T16:21:48.169Z,21.60
2022-12-01T16:24:35.093Z,20.40
2022-12-01T16:27:05.593Z,19.42
2022-12-01T16:29:35.144Z,21.52
2022-12-01T16:32:20.132Z,19.05
2022-12-01T16:34:47.341Z,21.05
2022-12-01T16:37:14.335Z,19.95
2022-12-01T16:39:41.036Z,21.27
2022-12-01T16:42:10.665Z,20.45
2022-12-01T16:44:37.048Z,19.85
2022-12-01T16:47:03.445Z,20.30
2022-12-01T16:49:30.347Z,20.63
2022-12-01T16:51:57.548Z,20.17
2022-12-01T16:54:25.543Z,20.17
2022-12-01T16:56:51.818Z,21.05
2022-12-01T16:59:18.164Z,20.83
2022-12-01T17:01:44.539Z,19.17
2022-12-01T17:04:11.171Z,19.30
2022-12-01T17:06:38.431Z,19.05
2022-12-01T17:09:05.217Z,18.65
2022-12-01T17:11:32.289Z,19.48
2022-12-01T17:13:58.855Z,19.08
2022-12-01T17:16:25.150Z,18.08
2022-12-01T17:18:51.632Z,18.70
2022-12-01T17:21:18.002Z,17.95
2022-12-01T17:23:44.332Z,18.48
2022-12-01T17:26:12.897Z,18.80
2022-12-01T17:28:39.316Z,18.85
2022-12-01T17:31:07.142Z,19.38
2022-12-01T17:33:34.010Z,21.67
2022-12-01T17:36:03.506Z,22.38
2022-12-01T17:38:30.049Z,22.38
2022-12-01T17:41:00.291Z,22.52
2022-12-01T17:43:26.744Z,21.20
2022-12-01T17:45:53.148Z,22.30
2022-12-01T17:48:19.548Z,21.95
2022-12-01T17:50:45.776Z,22.23
2022-12-01T17:53:12.301Z,22.27
2022-12-01T17:55:39.363Z,22.42
2022-12-01T17:58:05.784Z,24.60
2022-12-01T18:00:32.091Z,22.52
2022-12-01T18:02:58.444Z,21.77
2022-12-01T18:05:24.964Z,24.17
2022-12-01T18:07:51.746Z,23.33
2022-12-01T18:10:18.542Z,25.05
2022-12-01T18:12:44.877Z,22.73
2022-12-01T18:15:12.445Z,23.15
2022-12-01T18:17:39.180Z,23.00
2022-12-01T18:20:06.433Z,22.55
2022-12-01T18:22:32.761Z,22.48
2022-12-01T18:24:59.069Z,22.35
2022-12-01T18:27:25.424Z,24.00
2022-12-01T18:29:51.726Z,23.83
2022-12-01T18:32:18.102Z,25.52
2022-12-01T18:34:45.245Z,24.48
2022-12-01T18:37:11.544Z,24.00
2022-12-01T18:39:37.824Z,25.05
2022-12-01T18:42:04.510Z,25.02
2022-12-01T18:44:31.053Z,25.42
2022-12-01T18:46:58.919Z,25.63
2022-12-01T18:49:25.296Z,26.25
2022-12-01T18:51:51.623Z,25.70
2022-12-01T18:54:18.036Z,26.77
2022-12-01T18:56:44.342Z,28.35
2022-12-01T18:59:11.401Z,28.13
2022-12-01T19:01:39.937Z,28.30
2022-12-01T19:04:07.693Z,27.38
2022-12-01T19:06:34.900Z,26.50
2022-12-01T19:09:01.930Z,27.52
2022-12-01T19:11:28.802Z,22.92
2022-12-01T19:13:55.391Z,22.40
2022-12-01T19:16:21.862Z,24.35
2022-12-01T19:18:48.244Z,24.00
2022-12-01T19:21:16.502Z,23.55
2022-12-01T19:23:43.983Z,23.70
2022-12-01T19:26:12.640Z,22.55
2022-12-01T19:28:40.344Z,22.48
2022-12-01T19:31:07.355Z,23.95
2022-12-01T19:33:34.089Z,24.17
2022-12-01T19:36:29.778Z,25.38
2022-12-01T19:38:57.631Z,22.30
2022-12-01T19:41:25.217Z,21.92
2022-12-01T19:43:54.743Z,21.20
2022-12-01T19:46:22.339Z,19.40
2022-12-01T19:48:52.909Z,19.52
2022-12-01T19:51:20.409Z,19.17
2022-12-01T19:53:46.847Z,19.58
2022-12-01T19:56:13.172Z,40.58
2022-12-01T19:58:39.638Z,44.53
2022-12-01T20:01:07.612Z,32.55
2022-12-01T20:03:34.033Z,24.10
2022-12-01T20:06:07.774Z,19.23
2022-12-01T20:08:36.064Z,18.08
2022-12-01T20:11:04.202Z,18.15
2022-12-01T20:13:33.759Z,17.92
2022-12-01T20:16:04.695Z,18.02
2022-12-01T20:18:31.358Z,16.80
2022-12-01T20:21:17.100Z,19.75
2022-12-01T20:23:44.121Z,19.00
2022-12-01T20:26:11.369Z,18.95
2022-12-01T20:28:38.397Z,17.58
2022-12-01T20:31:09.442Z,19.92
2022-12-01T20:33:35.748Z,19.63
2022-12-01T20:36:02.230Z,17.75
2022-12-01T20:38:28.615Z,17.63
2022-12-01T20:40:55.008Z,18.08
2022-12-01T20:43:21.269Z,21.38
2022-12-01T20:45:47.775Z,20.38
2022-12-01T20:48:14.196Z,21.45
2022-12-01T20:50:40.521Z,21.63
2022-12-01T20:53:06.906Z,22.17
2022-12-01T20:55:34.574Z,22.38
2022-12-01T20:58:02.629Z,23.05
2022-12-01T21:00:31.842Z,22.75
2022-12-01T21:02:58.129Z,21.08
2022-12-01T21:05:24.993Z,19.85
2022-12-01T21:07:51.303Z,20.40
2022-12-01T21:10:20.164Z,20.27
2022-12-01T21:13:08.050Z,20.95
2022-12-01T21:15:37.550Z,21.15
2022-12-01T21:18:05.275Z,23.92
2022-12-01T21:20:32.769Z,24.10
2022-12-01T21:23:05.771Z,23.83
2022-12-01T21:25:33.045Z,22.67
2022-12-01T21:28:03.594Z,22.15
2022-12-01T21:30:30.343Z,24.05
2022-12-01T21:33:16.682Z,23.20
2022-12-01T21:35:43.152Z,22.40
2022-12-01T21:38:11.490Z,22.67
2022-12-01T21:40:37.736Z,22.00
2022-12-01T21:43:38.042Z,21.17
2022-12-01T21:46:10.356Z,23.00
2022-12-01T21:48:37.055Z,22.63
2022-12-01T21:51:11.505Z,21.33
2022-12-01T21:53:39.112Z,20.73
2022-12-01T21:56:05.520Z,20.58
2022-12-01T21:58:35.278Z,20.58
2022-12-01T22:01:02.579Z,20.98
2022-12-01T22:03:30.567Z,22.45
2022-12-01T22:06:27.613Z,22.67
2022-12-01T22:08:46.102Z,20.85
2022-12-01T22:11:16.114Z,23.27
2022-12-01T22:13:42.884Z,23.48
2022-12-01T22:16:10.424Z,24.33
2022-12-01T22:18:37.677Z,23.85
2022-12-01T22:21:25.630Z,25.10
2022-12-01T22:24:04.524Z,25.23
2022-12-01T22:26:31.379Z,25.50
2022-12-01T22:28:58.836Z,24.42
2022-12-01T22:31:25.439Z,25.25
2022-12-01T22:34:01.514Z,25.65
2022-12-01T22:36:30.785Z,27.40
2022-12-01T22:38:57.846Z,27.48
2022-12-01T22:41:24.340Z,27.50
2022-12-01T22:43:51.601Z,31.08
2022-12-01T22:46:24.139Z,28.88
2022-12-01T22:48:50.517Z,30.40
2022-12-01T22:51:22.652Z,32.38
2022-12-01T22:53:49.319Z,31.80
2022-12-01T22:56:30.846Z,31.02
2022-12-01T22:58:57.284Z,33.03
2022-12-01T23:01:30.229Z,31.40
2022-12-01T23:04:02.400Z,31.67
2022-12-01T23:06:48.062Z,31.75
2022-12-01T23:09:14.808Z,30.58
2022-12-01T23:11:44.743Z,31.25
2022-12-01T23:14:20.241Z,31.85
2022-12-01T23:16:46.574Z,33.15
2022-12-01T23:19:13.074Z,31.02
2022-12-01T23:21:39.321Z,33.28
2022-12-01T23:24:05.964Z,32.95
2022-12-01T23:26:32.663Z,35.30
2022-12-01T23:29:00.302Z,33.22
2022-12-01T23:31:27.543Z,32.60
2022-12-01T23:33:53.932Z,33.45
2022-12-01T23:36:25.776Z,32.35
2022-12-01T23:38:53.418Z,36.58
2022-12-01T23:41:33.525Z,34.55
2022-12-01T23:44:22.886Z,34.03
2022-12-01T23:46:51.008Z,33.45
2022-12-01T23:49:20.114Z,32.88
2022-12-01T23:51:57.006Z,34.58
2022-12-01T23:54:31.402Z,34.05
2022-12-01T23:57:02.331Z,34.70
2022-12-01T23:59:29.982Z,35.15
